Time,TemperatureF,DewpointF,PressureIn,WindDirection,WindDirectionDegrees,WindSpeedMPH,WindSpeedGustMPH,Humidity,HourlyPrecipIn,Conditions,Clouds,dailyrainin,SoftwareType,DateUTC
2013-05-02 00:02:00,62.0,60.0,30.04,North,6,0.0,0.0,92,0.00,,,0.00,,2013-05-02 05:02:00,
2013-05-02 00:12:00,62.0,60.0,30.04,North,6,0.0,0.0,92,0.00,,,0.00,,2013-05-02 05:12:00,
2013-05-02 00:22:00,62.0,60.0,30.04,North,6,0.0,0.0,93,0.00,,,0.00,,2013-05-02 05:22:00,
2013-05-02 00:32:00,61.0,59.0,30.04,North,6,0.0,0.0,94,0.00,,,0.00,,2013-05-02 05:32:00,
2013-05-02 00:42:00,61.0,59.0,30.04,North,6,0.0,0.0,94,0.00,,,0.00,,2013-05-02 05:42:00,
2013-05-02 00:52:00,61.0,59.0,30.04,North,6,0.0,1.0,94,0.00,,,0.00,,2013-05-02 05:52:00,
2013-05-02 01:01:00,61.0,59.0,30.03,North,5,0.0,0.0,94,0.00,,,0.00,,2013-05-02 06:01:00,
2013-05-02 01:12:00,61.0,59.0,30.03,North,5,0.0,0.0,94,0.00,,,0.00,,2013-05-02 06:12:00,
2013-05-02 01:21:00,60.0,58.0,30.03,North,6,0.0,0.0,94,0.00,,,0.00,,2013-05-02 06:21:00,
2013-05-02 01:31:00,60.0,59.0,30.03,North,5,0.0,0.0,95,0.00,,,0.00,,2013-05-02 06:31:00,
2013-05-02 01:42:00,60.0,59.0,30.03,North,5,0.0,0.0,95,0.00,,,0.00,,2013-05-02 06:42:00,
2013-05-02 01:52:00,60.0,59.0,30.03,North,6,0.0,0.0,95,0.00,,,0.00,,2013-05-02 06:52:00,
2013-05-02 02:02:00,59.0,58.0,30.02,North,6,0.0,1.0,96,0.00,,,0.00,,2013-05-02 07:02:00,
2013-05-02 02:11:00,59.0,58.0,30.02,North,6,0.0,1.0,96,0.00,,,0.00,,2013-05-02 07:11:00,
2013-05-02 02:21:00,59.0,58.0,30.02,North,6,0.0,0.0,96,0.00,,,0.00,,2013-05-02 07:21:00,
2013-05-02 02:32:00,58.0,57.0,30.02,North,6,0.0,0.0,96,0.00,,,0.00,,2013-05-02 07:32:00,
2013-05-02 02:42:00,58.0,57.0,30.02,North,6,0.0,0.0,96,0.00,,,0.00,,2013-05-02 07:42:00,
2013-05-02 02:52:00,58.0,57.0,30.02,North,6,0.0,0.0,97,0.00,,,0.00,,2013-05-02 07:52:00,
2013-05-02 03:02:00,58.0,57.0,30.01,North,6,0.0,1.0,97,0.00,,,0.00,,2013-05-02 08:02:00,
2013-05-02 03:11:00,58.0,57.0,30.01,North,6,0.0,1.0,97,0.00,,,0.00,,2013-05-02 08:11:00,
2013-05-02 03:22:00,58.0,57.0,30.01,North,6,0.0,1.0,97,0.00,,,0.00,,2013-05-02 08:22:00,
2013-05-02 03:32:00,57.0,56.0,30.01,North,6,0.0,0.0,97,0.00,,,0.00,,2013-05-02 08:32:00,
2013-05-02 03:42:00,57.0,56.0,30.01,North,6,0.0,0.0,97,0.00,,,0.00,,2013-05-02 08:42:00,
2013-05-02 03:52:00,57.0,56.0,30.01,North,6,0.0,0.0,97,0.00,,,0.00,,2013-05-02 08:52:00,
2013-05-02 04:02:00,57.0,56.0,30.02,North,5,0.0,0.0,97,0.00,,,0.00,,2013-05-02 09:02:00,
2013-05-02 04:11:00,57.0,56.0,30.02,North,5,0.0,0.0,97,0.00,,,0.00,,2013-05-02 09:11:00,
2013-05-02 04:21:00,57.0,56.0,30.02,North,5,0.0,0.0,98,0.00,,,0.00,,2013-05-02 09:21:00,
2013-05-02 04:32:00,57.0,56.0,30.03,North,6,0.0,1.0,98,0.00,,,0.00,,2013-05-02 09:32:00,
2013-05-02 04:42:00,57.0,56.0,30.03,North,6,0.0,1.0,98,0.00,,,0.00,,2013-05-02 09:42:00,
2013-05-02 04:52:00,57.0,56.0,30.03,North,4,0.0,1.0,97,0.00,,,0.00,,2013-05-02 09:52:00,
2013-05-02 05:02:00,57.0,56.0,30.04,North,8,0.0,1.0,98,0.00,,,0.00,,2013-05-02 10:02:00,
2013-05-02 05:12:00,57.0,56.0,30.04,North,8,0.0,1.0,98,0.00,,,0.00,,2013-05-02 10:12:00,
2013-05-02 05:22:00,58.0,57.0,30.04,North,7,0.0,0.0,98,0.00,,,0.00,,2013-05-02 10:22:00,
2013-05-02 05:33:00,58.0,57.0,30.04,North,6,0.0,1.0,98,0.00,,,0.00,,2013-05-02 10:33:00,
2013-05-02 05:42:00,58.0,57.0,30.04,North,6,0.0,1.0,98,0.00,,,0.00,,2013-05-02 10:42:00,
2013-05-02 05:53:00,58.0,57.0,30.04,North,6,0.0,0.0,98,0.00,,,0.00,,2013-05-02 10:53:00,
2013-05-02 06:02:00,57.0,56.0,30.04,North,6,0.0,0.0,97,0.00,,,0.00,,2013-05-02 11:02:00,
2013-05-02 06:12:00,57.0,56.0,30.04,North,6,0.0,0.0,97,0.00,,,0.00,,2013-05-02 11:12:00,
2013-05-02 06:22:00,57.0,56.0,30.05,North,8,0.0,0.0,98,0.00,,,0.00,,2013-05-02 11:22:00,
2013-05-02 06:32:00,58.0,57.0,30.05,NE,49,0.0,1.0,98,0.00,,,0.00,,2013-05-02 11:32:00,
2013-05-02 06:42:00,58.0,57.0,30.05,NE,49,0.0,1.0,98,0.00,,,0.00,,2013-05-02 11:42:00,
2013-05-02 06:52:00,58.0,57.0,30.06,NW,309,0.0,1.0,98,0.00,,,0.00,,2013-05-02 11:52:00,
2013-05-02 07:01:00,59.0,58.0,30.06,NNE,16,0.0,3.0,98,0.00,,,0.00,,2013-05-02 12:01:00,
2013-05-02 07:11:00,59.0,58.0,30.06,NNE,16,0.0,3.0,98,0.00,,,0.00,,2013-05-02 12:11:00,
2013-05-02 07:21:00,60.0,59.0,30.06,North,6,0.0,1.0,98,0.00,,,0.00,,2013-05-02 12:21:00,
2013-05-02 07:32:00,60.0,59.0,30.07,SE,136,0.0,1.0,98,0.00,,,0.00,,2013-05-02 12:32:00,
2013-05-02 07:42:00,60.0,59.0,30.07,SE,136,0.0,1.0,98,0.00,,,0.00,,2013-05-02 12:42:00,
2013-05-02 07:52:00,61.0,60.0,30.07,SE,141,0.0,1.0,98,0.00,,,0.00,,2013-05-02 12:52:00,
2013-05-02 08:01:00,61.0,60.0,30.08,SE,142,0.0,2.0,97,0.00,,,0.00,,2013-05-02 13:01:00,
2013-05-02 08:11:00,61.0,60.0,30.08,SE,142,0.0,2.0,97,0.00,,,0.00,,2013-05-02 13:11:00,
2013-05-02 08:21:00,61.0,60.0,30.08,SSE,159,0.0,1.0,97,0.00,,,0.00,,2013-05-02 13:21:00,
2013-05-02 08:31:00,61.0,60.0,30.09,SW,217,1.0,5.0,96,0.00,,,0.00,,2013-05-02 13:31:00,
2013-05-02 08:42:00,61.0,60.0,30.09,SW,217,1.0,5.0,96,0.00,,,0.00,,2013-05-02 13:42:00,
2013-05-02 08:52:00,61.0,60.0,30.09,SW,224,0.0,1.0,96,0.00,,,0.00,,2013-05-02 13:52:00,
2013-05-02 09:02:00,62.0,61.0,30.09,WSW,249,0.0,1.0,96,0.00,,,0.00,,2013-05-02 14:02:00,
2013-05-02 09:11:00,62.0,61.0,30.09,WSW,249,0.0,1.0,96,0.00,,,0.00,,2013-05-02 14:11:00,
2013-05-02 09:22:00,62.0,60.0,30.09,West,273,0.0,2.0,94,0.00,,,0.00,,2013-05-02 14:22:00,
2013-05-02 09:32:00,63.0,61.0,30.09,WSW,238,1.0,2.0,93,0.00,,,0.00,,2013-05-02 14:32:00,
2013-05-02 09:42:00,63.0,61.0,30.09,WSW,238,1.0,2.0,93,0.00,,,0.00,,2013-05-02 14:42:00,
2013-05-02 09:52:00,63.0,61.0,30.09,WSW,255,0.0,2.0,94,0.00,,,0.00,,2013-05-02 14:52:00,
2013-05-02 10:02:00,63.0,61.0,30.09,SW,225,0.0,3.0,94,0.00,,,0.00,,2013-05-02 15:02:00,
2013-05-02 10:12:00,63.0,61.0,30.09,SW,225,0.0,3.0,94,0.00,,,0.00,,2013-05-02 15:12:00,
2013-05-02 10:22:00,64.0,62.0,30.09,SW,233,0.0,2.0,94,0.00,,,0.00,,2013-05-02 15:22:00,
2013-05-02 10:33:00,64.0,62.0,30.08,SW,229,1.0,3.0,94,0.00,,,0.00,,2013-05-02 15:33:00,
2013-05-02 10:43:00,64.0,62.0,30.08,SW,229,1.0,3.0,94,0.00,,,0.00,,2013-05-02 15:43:00,
2013-05-02 11:02:00,64.0,62.0,30.08,WSW,243,0.0,3.0,94,0.00,,,0.00,,2013-05-02 16:02:00,
2013-05-02 11:13:00,64.0,62.0,30.08,WSW,243,0.0,3.0,94,0.00,,,0.00,,2013-05-02 16:13:00,
2013-05-02 11:22:00,64.0,62.0,30.09,ESE,121,1.0,4.0,94,0.04,,,0.04,,2013-05-02 16:22:00,
2013-05-02 11:32:00,64.0,63.0,30.09,ESE,103,0.0,3.0,96,0.06,,,0.06,,2013-05-02 16:32:00,
2013-05-02 11:43:00,64.0,63.0,30.09,ESE,103,0.0,3.0,96,0.06,,,0.06,,2013-05-02 16:43:00,
2013-05-02 11:52:00,63.0,62.0,30.09,SSE,158,0.0,4.0,95,0.07,,,0.07,,2013-05-02 16:52:00,
2013-05-02 12:02:00,62.0,61.0,30.09,WNW,288,0.0,4.0,95,0.09,,,0.09,,2013-05-02 17:02:00,
2013-05-02 12:12:00,62.0,61.0,30.09,WNW,288,0.0,4.0,95,0.09,,,0.09,,2013-05-02 17:12:00,
2013-05-02 12:22:00,62.0,61.0,30.09,WNW,287,4.0,9.0,96,0.07,,,0.11,,2013-05-02 17:22:00,
2013-05-02 12:31:00,61.0,60.0,30.09,NW,312,2.0,8.0,95,0.05,,,0.11,,2013-05-02 17:31:00,
2013-05-02 12:42:00,61.0,60.0,30.09,NW,312,2.0,8.0,95,0.05,,,0.11,,2013-05-02 17:42:00,
2013-05-02 12:52:00,60.0,59.0,30.09,WNW,293,2.0,6.0,95,0.04,,,0.11,,2013-05-02 17:52:00,
2013-05-02 13:01:00,59.0,58.0,30.10,WNW,283,2.0,7.0,95,0.02,,,0.11,,2013-05-02 18:01:00,
2013-05-02 13:11:00,59.0,58.0,30.10,WNW,283,2.0,7.0,95,0.02,,,0.11,,2013-05-02 18:11:00,
2013-05-02 13:21:00,59.0,58.0,30.10,WNW,297,2.0,7.0,95,0.01,,,0.12,,2013-05-02 18:21:00,
2013-05-02 13:31:00,58.0,57.0,30.09,NW,312,2.0,7.0,95,0.02,,,0.13,,2013-05-02 18:31:00,
2013-05-02 13:41:00,58.0,57.0,30.09,NW,312,2.0,7.0,95,0.02,,,0.13,,2013-05-02 18:41:00,
2013-05-02 13:52:00,58.0,56.0,30.09,WNW,287,5.0,10.0,94,0.03,,,0.14,,2013-05-02 18:52:00,
2013-05-02 14:01:00,58.0,56.0,30.10,West,276,2.0,9.0,94,0.04,,,0.15,,2013-05-02 19:01:00,
2013-05-02 14:11:00,58.0,56.0,30.10,West,276,2.0,9.0,94,0.04,,,0.15,,2013-05-02 19:11:00,
2013-05-02 14:21:00,58.0,57.0,30.09,NW,320,2.0,6.0,95,0.03,,,0.15,,2013-05-02 19:21:00,
2013-05-02 14:32:00,57.0,55.0,30.09,NW,318,2.0,10.0,93,0.02,,,0.15,,2013-05-02 19:32:00,
2013-05-02 14:42:00,57.0,55.0,30.09,NW,318,2.0,10.0,93,0.02,,,0.15,,2013-05-02 19:42:00,
2013-05-02 14:52:00,57.0,55.0,30.10,West,280,3.0,9.0,92,0.01,,,0.15,,2013-05-02 19:52:00,
2013-05-02 15:02:00,56.0,54.0,30.10,NW,326,3.0,9.0,93,0.00,,,0.15,,2013-05-02 20:02:00,
2013-05-02 15:11:00,56.0,54.0,30.10,NW,326,3.0,9.0,93,0.00,,,0.15,,2013-05-02 20:11:00,
2013-05-02 15:22:00,55.0,53.0,30.09,WNW,287,2.0,7.0,94,0.00,,,0.15,,2013-05-02 20:22:00,
2013-05-02 15:32:00,54.0,52.0,30.10,WNW,297,1.0,7.0,94,0.00,,,0.15,,2013-05-02 20:32:00,
2013-05-02 15:41:00,54.0,52.0,30.10,WNW,297,1.0,7.0,94,0.00,,,0.15,,2013-05-02 20:41:00,
2013-05-02 15:52:00,53.0,51.0,30.10,NW,316,3.0,8.0,94,0.01,,,0.16,,2013-05-02 20:52:00,
2013-05-02 16:01:00,53.0,52.0,30.10,NW,309,3.0,9.0,95,0.03,,,0.18,,2013-05-02 21:01:00,
2013-05-02 16:11:00,53.0,52.0,30.10,NW,309,3.0,9.0,95,0.03,,,0.18,,2013-05-02 21:11:00,
2013-05-02 16:21:00,53.0,52.0,30.10,WNW,300,3.0,10.0,95,0.04,,,0.19,,2013-05-02 21:21:00,
2013-05-02 16:33:00,52.0,51.0,30.10,NW,309,3.0,9.0,95,0.05,,,0.20,,2013-05-02 21:33:00,
2013-05-02 16:42:00,52.0,51.0,30.10,NW,309,3.0,9.0,95,0.05,,,0.20,,2013-05-02 21:42:00,
2013-05-02 16:53:00,52.0,51.0,30.10,NNW,335,3.0,10.0,95,0.06,,,0.22,,2013-05-02 21:53:00,
2013-05-02 17:02:00,51.0,50.0,30.10,NW,320,2.0,8.0,95,0.04,,,0.22,,2013-05-02 22:02:00,
2013-05-02 17:12:00,51.0,50.0,30.10,NW,320,2.0,8.0,95,0.04,,,0.22,,2013-05-02 22:12:00,
2013-05-02 17:22:00,51.0,50.0,30.10,WNW,298,1.0,8.0,96,0.04,,,0.23,,2013-05-02 22:22:00,
2013-05-02 17:32:00,51.0,50.0,30.10,NNW,331,2.0,11.0,95,0.07,,,0.27,,2013-05-02 22:32:00,
2013-05-02 17:42:00,51.0,50.0,30.10,NNW,331,2.0,11.0,95,0.07,,,0.27,,2013-05-02 22:42:00,
2013-05-02 17:52:00,50.0,49.0,30.10,West,276,3.0,9.0,95,0.07,,,0.28,,2013-05-02 22:52:00,
2013-05-02 18:02:00,50.0,49.0,30.10,NW,318,4.0,9.0,95,0.07,,,0.28,,2013-05-02 23:02:00,
2013-05-02 18:11:00,50.0,49.0,30.10,NW,318,4.0,9.0,95,0.07,,,0.28,,2013-05-02 23:11:00,
2013-05-02 18:22:00,50.0,49.0,30.10,NNW,328,3.0,6.0,95,0.06,,,0.28,,2013-05-02 23:22:00,
2013-05-02 18:32:00,49.0,48.0,30.11,NW,322,4.0,10.0,95,0.02,,,0.28,,2013-05-02 23:32:00,
2013-05-02 18:42:00,49.0,48.0,30.11,NW,322,4.0,10.0,95,0.02,,,0.28,,2013-05-02 23:42:00,
2013-05-02 18:52:00,49.0,47.0,30.11,NW,312,3.0,12.0,94,0.00,,,0.28,,2013-05-02 23:52:00,
2013-05-02 19:01:00,49.0,48.0,30.11,NNW,333,3.0,8.0,95,0.00,,,0.28,,2013-05-03 00:01:00,
2013-05-02 19:11:00,49.0,48.0,30.11,NNW,333,3.0,8.0,95,0.00,,,0.28,,2013-05-03 00:11:00,
2013-05-02 19:21:00,48.0,46.0,30.11,WNW,295,3.0,6.0,94,0.00,,,0.28,,2013-05-03 00:21:00,
2013-05-02 19:31:00,48.0,46.0,30.11,NW,304,2.0,8.0,94,0.02,,,0.31,,2013-05-03 00:31:00,
2013-05-02 19:41:00,48.0,46.0,30.11,NW,304,2.0,8.0,94,0.02,,,0.31,,2013-05-03 00:41:00,
2013-05-02 19:52:00,48.0,47.0,30.12,WNW,293,2.0,6.0,95,0.04,,,0.33,,2013-05-03 00:52:00,
2013-05-02 20:01:00,47.0,46.0,30.12,NNW,340,2.0,8.0,95,0.07,,,0.36,,2013-05-03 01:01:00,
2013-05-02 20:11:00,47.0,46.0,30.12,NNW,340,2.0,8.0,95,0.07,,,0.36,,2013-05-03 01:11:00,
2013-05-02 20:21:00,47.0,46.0,30.12,NW,311,2.0,6.0,96,0.10,,,0.39,,2013-05-03 01:21:00,
2013-05-02 20:31:00,46.0,45.0,30.12,WNW,295,3.0,8.0,96,0.09,,,0.40,,2013-05-03 01:31:00,
2013-05-02 20:42:00,46.0,45.0,30.12,WNW,295,3.0,8.0,96,0.09,,,0.40,,2013-05-03 01:42:00,
2013-05-02 20:52:00,46.0,45.0,30.13,WNW,297,4.0,10.0,95,0.08,,,0.41,,2013-05-03 01:52:00,
2013-05-02 21:01:00,45.0,44.0,30.13,NW,321,4.0,8.0,96,0.06,,,0.42,,2013-05-03 02:01:00,
2013-05-02 21:11:00,45.0,44.0,30.13,NW,321,4.0,8.0,96,0.06,,,0.42,,2013-05-03 02:11:00,
2013-05-02 21:21:00,45.0,44.0,30.14,NW,308,4.0,9.0,96,0.03,,,0.42,,2013-05-03 02:21:00,
2013-05-02 21:32:00,45.0,44.0,30.14,WNW,302,2.0,7.0,96,0.04,,,0.44,,2013-05-03 02:32:00,
2013-05-02 21:42:00,45.0,44.0,30.14,WNW,302,2.0,7.0,96,0.04,,,0.44,,2013-05-03 02:42:00,
2013-05-02 21:52:00,44.0,43.0,30.14,West,276,2.0,11.0,96,0.03,,,0.44,,2013-05-03 02:52:00,
2013-05-02 22:01:00,44.0,43.0,30.14,WNW,284,2.0,11.0,96,0.02,,,0.44,,2013-05-03 03:01:00,
2013-05-02 22:11:00,44.0,43.0,30.14,WNW,284,2.0,11.0,96,0.02,,,0.44,,2013-05-03 03:11:00,
2013-05-02 22:21:00,43.0,42.0,30.14,WNW,293,3.0,11.0,96,0.03,,,0.45,,2013-05-03 03:21:00,
2013-05-02 22:33:00,43.0,42.0,30.14,North,359,3.0,9.0,95,0.01,,,0.45,,2013-05-03 03:33:00,
2013-05-02 22:42:00,43.0,42.0,30.14,North,359,3.0,9.0,95,0.01,,,0.45,,2013-05-03 03:42:00,
2013-05-02 22:53:00,43.0,42.0,30.14,WNW,283,3.0,9.0,96,0.02,,,0.46,,2013-05-03 03:53:00,
2013-05-02 23:03:00,43.0,42.0,30.14,NNW,340,2.0,8.0,96,0.02,,,0.46,,2013-05-03 04:03:00,
2013-05-02 23:12:00,43.0,42.0,30.14,NNW,340,2.0,8.0,96,0.02,,,0.46,,2013-05-03 04:12:00,
2013-05-02 23:22:00,42.0,41.0,30.14,NW,314,2.0,10.0,96,0.02,,,0.47,,2013-05-03 04:22:00,
2013-05-02 23:32:00,42.0,41.0,30.14,NW,324,2.0,12.0,96,0.02,,,0.47,,2013-05-03 04:32:00,
2013-05-02 23:42:00,42.0,41.0,30.14,NW,324,2.0,12.0,96,0.02,,,0.47,,2013-05-03 04:42:00,
2013-05-02 23:53:00,42.0,41.0,30.13,NNW,328,2.0,7.0,96,0.02,,,0.48,,2013-05-03 04:53:00,